Time;durP1;ratioP1;P1;durP2;ratioP2;P2;SDS_P1;SDS_P2;PMS_P1;PMS_P2;Temp;Humidity;BMP_temperature;BMP_pressure;BME280_temperature;BME280_humidity;BME280_pressure;Samples;Min_cycle;Max_cycle;Signal;HPM_P1;HPM_P2
2023/12/26 00:00:32;;;;;;;1.30;0.20;;;;;;;;;;5056059;28;20030;-78
2023/12/26 00:03:07;;;;;;;0.57;0.10;;;;;;;;;;5059064;28;20009;-77
2023/12/26 00:05:51;;;;;;;0.73;0.10;;;;;;;;;;5069823;28;20018;-77
2023/12/26 00:08:41;;;;;;;;;;;;;;;;;;;;;
2023/12/26 00:11:31;;;;;;;1.67;0.20;;;;;;;;;;5058130;28;20006;-77
2023/12/26 00:13:59;;;;;;;0.20;0.10;;;;;;;;;;5057597;28;20029;-77
2023/12/26 00:16:45;;;;;;;0.10;0.10;;;;;;;;;;5075112;28;20021;-78
2023/12/26 00:19:14;;;;;;;0.77;0.20;;;;;;;;;;5049880;28;20033;-77
2023/12/26 00:21:51;;;;;;;0.10;0.03;;;;;;;;;;5066706;28;20040;-77
2023/12/26 00:24:17;;;;;;;0.27;0.10;;;;;;;;;;5067497;28;20040;-78
2023/12/26 00:26:45;;;;;;;0.30;0.20;;;;;;;;;;5052910;28;20022;-77
2023/12/26 00:29:29;;;;;;;0.40;0.13;;;;;;;;;;5055770;28;20036;-78
2023/12/26 00:31:55;;;;;;;0.20;0.10;;;;;;;;;;5052352;28;20017;-77
2023/12/26 00:34:21;;;;;;;0.27;0.20;;;;;;;;;;5051442;28;20057;-78
2023/12/26 00:37:07;;;;;;;;;;;;;;;;;;;;;
2023/12/26 00:39:48;;;;;;;0.27;0.10;;;;;;;;;;5051585;28;20025;-77
2023/12/26 00:42:17;;;;;;;1.50;0.20;;;;;;;;;;5052038;28;20082;-77
2023/12/26 00:44:46;;;;;;;0.60;0.20;;;;;;;;;;5056070;28;20017;-77
2023/12/26 00:47:19;;;;;;;0.37;0.20;;;;;;;;;;5057920;28;20032;-77
2023/12/26 00:49:45;;;;;;;2.03;0.30;;;;;;;;;;5058760;28;20022;-77
2023/12/26 00:52:22;;;;;;;0.47;0.20;;;;;;;;;;5054298;28;20044;-76
2023/12/26 00:54:53;;;;;;;0.87;0.30;;;;;;;;;;5074419;28;20028;-77
2023/12/26 00:57:24;;;;;;;0.90;0.20;;;;;;;;;;5058561;28;20070;-77
2023/12/26 01:00:08;;;;;;;0.20;0.20;;;;;;;;;;5058045;28;20017;-77
2023/12/26 01:02:39;;;;;;;2.20;0.30;;;;;;;;;;5059336;28;20013;-77
2023/12/26 01:05:12;;;;;;;0.70;0.23;;;;;;;;;;5053111;28;20075;-76
2023/12/26 01:07:46;;;;;;;1.13;0.40;;;;;;;;;;5053132;28;20085;-77
2023/12/26 01:10:15;;;;;;;1.33;0.20;;;;;;;;;;5074969;28;20025;-77
2023/12/26 01:13:01;;;;;;;0.10;0.10;;;;;;;;;;5052682;28;20028;-77
2023/12/26 01:15:32;;;;;;;0.83;0.37;;;;;;;;;;5116018;22;20049;-77
2023/12/26 01:18:26;;;;;;;0.40;0.30;;;;;;;;;;5050007;28;20056;-76
2023/12/26 01:20:54;;;;;;;0.63;0.20;;;;;;;;;;5037674;28;20028;-77
2023/12/26 01:23:23;;;;;;;1.23;0.30;;;;;;;;;;5038757;28;20033;-77
2023/12/26 01:25:57;;;;;;;1.70;0.30;;;;;;;;;;5037343;28;20026;-77
2023/12/26 01:28:25;;;;;;;0.70;0.20;;;;;;;;;;5038627;28;20349;-77
2023/12/26 01:30:54;;;;;;;1.13;0.10;;;;;;;;;;5033450;28;20040;-77
2023/12/26 01:33:28;;;;;;;0.30;0.10;;;;;;;;;;5034720;28;20080;-77
2023/12/26 01:35:56;;;;;;;0.87;0.20;;;;;;;;;;5039084;28;20022;-77
2023/12/26 01:38:30;;;;;;;3.23;0.30;;;;;;;;;;5038309;28;20030;-77
2023/12/26 01:40:56;;;;;;;0.40;0.20;;;;;;;;;;5050702;28;20014;-77
2023/12/26 01:43:22;;;;;;;1.13;0.30;;;;;;;;;;5036066;28;20018;-77
2023/12/26 01:45:48;;;;;;;1.67;0.20;;;;;;;;;;5046008;28;20089;-77
2023/12/26 01:48:24;;;;;;;1.47;0.27;;;;;;;;;;5036427;28;20087;-77
2023/12/26 01:51:01;;;;;;;1.00;0.20;;;;;;;;;;5053589;28;20080;-77
2023/12/26 01:53:30;;;;;;;0.57;0.20;;;;;;;;;;5040899;28;20018;-77
2023/12/26 01:55:59;;;;;;;1.00;0.27;;;;;;;;;;5042022;28;20021;-76
2023/12/26 01:58:49;;;;;;;1.33;0.17;;;;;;;;;;5040567;28;20022;-77
2023/12/26 02:01:21;;;;;;;2.63;0.43;;;;;;;;;;5057844;28;20022;-78
2023/12/26 02:03:59;;;;;;;;;;;;;;;;;;;;;
2023/12/26 02:06:45;;;;;;;0.73;0.60;;;;;;;;;;5041859;28;20025;-76
2023/12/26 02:09:20;;;;;;;3.00;0.20;;;;;;;;;;5058306;28;20074;-77
2023/12/26 02:11:55;;;;;;;1.03;0.20;;;;;;;;;;5041809;28;20032;-76
2023/12/26 02:14:24;;;;;;;1.90;0.23;;;;;;;;;;5058024;28;20024;-77
2023/12/26 02:17:03;;;;;;;3.47;0.30;;;;;;;;;;5037380;28;20044;-77
2023/12/26 02:19:29;;;;;;;3.13;0.30;;;;;;;;;;5040593;28;20037;-77
2023/12/26 02:22:08;;;;;;;;;;;;;;;;;;;;;
2023/12/26 02:24:47;;;;;;;1.97;0.40;;;;;;;;;;5041733;28;20033;-77
2023/12/26 02:27:36;;;;;;;2.00;0.50;;;;;;;;;;5040184;28;20025;-77
2023/12/26 02:30:05;;;;;;;2.37;0.20;;;;;;;;;;5040147;28;20053;-77
2023/12/26 02:33:02;;;;;;;;;;;;;;;;;;;;;
2023/12/26 02:35:46;;;;;;;0.77;0.20;;;;;;;;;;5039502;28;20045;-76
2023/12/26 02:38:12;;;;;;;1.27;0.20;;;;;;;;;;5035824;28;20049;-76
2023/12/26 02:40:38;;;;;;;2.27;0.20;;;;;;;;;;5042376;28;20029;-77
2023/12/26 02:43:33;;;;;;;2.77;0.50;;;;;;;;;;5031730;28;20053;-76
2023/12/26 02:46:02;;;;;;;2.10;0.40;;;;;;;;;;5030125;28;20061;-77
2023/12/26 02:48:28;;;;;;;1.77;0.30;;;;;;;;;;5048224;28;20013;-77
2023/12/26 02:50:56;;;;;;;0.93;0.40;;;;;;;;;;5047100;28;20029;-77
2023/12/26 02:53:35;;;;;;;;;;;;;;;;;;;;;
2023/12/26 02:56:08;;;;;;;1.53;0.30;;;;;;;;;;5031477;28;20400;-76
2023/12/26 02:58:41;;;;;;;1.47;0.23;;;;;;;;;;5047137;28;20034;-77
2023/12/26 03:01:10;;;;;;;2.33;0.30;;;;;;;;;;5032142;28;20041;-77
2023/12/26 03:03:46;;;;;;;;;;;;;;;;;;;;;
2023/12/26 03:06:18;;;;;;;0.77;0.33;;;;;;;;;;5032107;28;20054;-76
2023/12/26 03:08:49;;;;;;;8.18;0.52;;;;;;;;;;5030767;28;20016;-77
2023/12/26 03:11:17;;;;;;;2.40;0.37;;;;;;;;;;5049568;28;20018;-76
2023/12/26 03:13:43;;;;;;;1.27;0.33;;;;;;;;;;5047730;28;20049;-76
2023/12/26 03:16:15;;;;;;;1.13;0.53;;;;;;;;;;5031852;28;20296;-76
2023/12/26 03:18:46;;;;;;;2.17;0.40;;;;;;;;;;5030955;28;20027;-76
2023/12/26 03:21:32;;;;;;;2.80;0.33;;;;;;;;;;5048496;28;20041;-76
2023/12/26 03:23:58;;;;;;;1.47;0.40;;;;;;;;;;5021806;28;20036;-77
2023/12/26 03:26:35;;;;;;;1.60;0.60;;;;;;;;;;5033436;28;20049;-77
2023/12/26 03:29:09;;;;;;;1.90;0.73;;;;;;;;;;5030962;28;20041;-77
2023/12/26 03:31:49;;;;;;;;;;;;;;;;;;;;;
2023/12/26 03:34:31;;;;;;;3.93;1.13;;;;;;;;;;5032776;28;20042;-77
2023/12/26 03:37:03;;;;;;;3.20;0.52;;;;;;;;;;5031721;28;20042;-77
2023/12/26 03:39:31;;;;;;;1.60;0.60;;;;;;;;;;5030664;28;20048;-77
2023/12/26 03:41:59;;;;;;;2.67;0.60;;;;;;;;;;5028443;28;20273;-77
2023/12/26 03:44:30;;;;;;;4.20;0.57;;;;;;;;;;5030969;28;20097;-76
2023/12/26 03:47:06;;;;;;;;;;;;;;;;;;;;;
2023/12/26 03:49:35;;;;;;;1.90;0.37;;;;;;;;;;5032303;28;20057;-77
2023/12/26 03:52:27;;;;;;;;;;;;;;;;;;;;;
2023/12/26 03:55:01;;;;;;;1.80;0.60;;;;;;;;;;5030641;28;20045;-77
2023/12/26 03:57:29;;;;;;;1.57;0.70;;;;;;;;;;5030611;28;20215;-77
2023/12/26 03:59:58;;;;;;;3.50;0.80;;;;;;;;;;5028306;28;20037;-77
2023/12/26 04:02:26;;;;;;;1.77;0.47;;;;;;;;;;5029683;28;20089;-77
2023/12/26 04:05:02;;;;;;;;;;;;;;;;;;;;;
2023/12/26 04:07:31;;;;;;;6.80;0.90;;;;;;;;;;5031518;28;20038;-77
2023/12/26 04:09:59;;;;;;;1.77;0.40;;;;;;;;;;5030421;28;20031;-77
2023/12/26 04:12:45;;;;;;;2.83;0.60;;;;;;;;;;5029034;28;20030;-77
2023/12/26 04:15:14;;;;;;;2.73;0.70;;;;;;;;;;5029043;28;20164;-77
2023/12/26 04:17:40;;;;;;;2.53;0.60;;;;;;;;;;5030300;28;20040;-76
2023/12/26 04:20:09;;;;;;;1.63;0.30;;;;;;;;;;5029994;28;20030;-77
2023/12/26 04:22:44;;;;;;;5.07;0.53;;;;;;;;;;5029020;28;20061;-77
2023/12/26 04:25:29;;;;;;;1.67;0.70;;;;;;;;;;5030287;28;20020;-77
2023/12/26 04:27:55;;;;;;;3.47;0.60;;;;;;;;;;5029564;28;20108;-77
2023/12/26 04:30:24;;;;;;;2.07;0.60;;;;;;;;;;5029931;28;20034;-77
2023/12/26 04:32:53;;;;;;;0.50;0.30;;;;;;;;;;5028961;28;20018;-77
2023/12/26 04:35:41;;;;;;;3.20;0.77;;;;;;;;;;5028445;28;20045;-77
2023/12/26 04:38:12;;;;;;;1.07;0.50;;;;;;;;;;5046579;28;20034;-77
2023/12/26 04:40:53;;;;;;;1.90;0.60;;;;;;;;;;5022226;28;20045;-77
2023/12/26 04:43:52;;;;;;;;;;;;;;;;;;;;;
2023/12/26 04:46:26;;;;;;;3.83;1.10;;;;;;;;;;5027075;28;20033;-77
2023/12/26 04:48:57;;;;;;;0.93;0.50;;;;;;;;;;5036680;28;20093;-77
2023/12/26 04:51:32;;;;;;;3.33;0.60;;;;;;;;;;5049099;28;20017;-77
2023/12/26 04:54:06;;;;;;;1.13;0.50;;;;;;;;;;5035118;28;20006;-77
2023/12/26 04:56:43;;;;;;;;;;;;;;;;;;;;;
2023/12/26 04:59:34;;;;;;;2.20;0.57;;;;;;;;;;5032400;28;20014;-77
2023/12/26 05:02:02;;;;;;;1.77;0.77;;;;;;;;;;5029864;28;20282;-77
2023/12/26 05:04:41;;;;;;;;;;;;;;;;;;;;;
2023/12/26 05:07:32;;;;;;;4.37;0.83;;;;;;;;;;5036172;28;20014;-77
2023/12/26 05:09:58;;;;;;;5.23;0.97;;;;;;;;;;5027529;28;20014;-77
2023/12/26 05:12:26;;;;;;;5.13;0.60;;;;;;;;;;5037523;28;20028;-76
2023/12/26 05:15:02;;;;;;;5.47;0.70;;;;;;;;;;5033132;28;20041;-77
2023/12/26 05:17:31;;;;;;;5.03;0.83;;;;;;;;;;5053406;28;20049;-77
2023/12/26 05:20:20;;;;;;;4.67;1.10;;;;;;;;;;5043828;28;20018;-77
2023/12/26 05:22:54;;;;;;;1.73;0.60;;;;;;;;;;5037264;28;20085;-77
2023/12/26 05:25:24;;;;;;;5.33;1.07;;;;;;;;;;5037835;28;20014;-76
2023/12/26 05:27:50;;;;;;;5.97;1.23;;;;;;;;;;5035957;28;20026;-77
2023/12/26 05:30:37;;;;;;;2.83;0.90;;;;;;;;;;5039383;28;20037;-77
2023/12/26 05:33:03;;;;;;;2.40;0.70;;;;;;;;;;5041393;28;20033;-77
2023/12/26 05:35:31;;;;;;;3.57;1.20;;;;;;;;;;5036596;28;20053;-77
2023/12/26 05:38:07;;;;;;;;;;;;;;;;;;;;;
2023/12/26 05:40:34;;;;;;;7.77;1.00;;;;;;;;;;5040274;28;20025;-77
2023/12/26 05:43:03;;;;;;;4.47;1.37;;;;;;;;;;5036886;28;20101;-77
2023/12/26 05:45:32;;;;;;;6.30;1.80;;;;;;;;;;5029796;28;20032;-77
2023/12/26 05:48:10;;;;;;;;;;;;;;;;;;;;;
2023/12/26 05:50:49;;;;;;;4.00;1.60;;;;;;;;;;5040805;28;20014;-77
2023/12/26 05:53:22;;;;;;;10.60;1.50;;;;;;;;;;5039357;28;20018;-76
2023/12/26 05:55:51;;;;;;;4.30;1.17;;;;;;;;;;5039781;28;20014;-77
2023/12/26 05:58:34;;;;;;;3.00;1.30;;;;;;;;;;5039464;28;20021;-77
2023/12/26 06:01:01;;;;;;;4.03;1.20;;;;;;;;;;5041410;28;20026;-76
2023/12/26 06:03:32;;;;;;;6.03;1.30;;;;;;;;;;5040446;28;20209;-77
2023/12/26 06:06:08;;;;;;;5.37;1.00;;;;;;;;;;5040468;28;20045;-77
2023/12/26 06:08:44;;;;;;;7.10;1.13;;;;;;;;;;5036836;28;20029;-78
2023/12/26 06:11:10;;;;;;;4.40;1.10;;;;;;;;;;5039713;28;20014;-77
2023/12/26 06:13:39;;;;;;;3.10;0.97;;;;;;;;;;5055511;28;20024;-76
2023/12/26 06:16:10;;;;;;;3.37;1.40;;;;;;;;;;5040330;28;20053;-78
2023/12/26 06:18:43;;;;;;;5.67;1.20;;;;;;;;;;5027403;28;20032;-77
2023/12/26 06:21:17;;;;;;;4.37;1.43;;;;;;;;;;5027423;28;20034;-76
2023/12/26 06:23:53;;;;;;;;;;;;;;;;;;;;;
2023/12/26 06:26:27;;;;;;;3.70;1.27;;;;;;;;;;5033788;28;20030;-77
2023/12/26 06:29:11;;;;;;;2.97;1.10;;;;;;;;;;5030825;28;20064;-77
2023/12/26 06:31:37;;;;;;;4.37;1.10;;;;;;;;;;5048592;28;20018;-77
2023/12/26 06:34:16;;;;;;;;;;;;;;;;;;;;;
2023/12/26 06:36:42;;;;;;;6.60;1.13;;;;;;;;;;5033252;28;20048;-77
2023/12/26 06:39:11;;;;;;;5.97;1.23;;;;;;;;;;5024747;28;20010;-77
2023/12/26 06:41:55;;;;;;;5.50;1.10;;;;;;;;;;5032226;28;20014;-77
2023/12/26 06:44:23;;;;;;;5.77;1.30;;;;;;;;;;5112775;23;20041;-77
2023/12/26 06:46:49;;;;;;;4.07;1.07;;;;;;;;;;5059968;28;20017;-77
2023/12/26 06:49:21;;;;;;;5.57;1.20;;;;;;;;;;5055883;28;20034;-77
2023/12/26 06:51:49;;;;;;;7.20;1.40;;;;;;;;;;5057381;28;20089;-77
2023/12/26 06:54:33;;;;;;;;;;;;;;;;;;;;;
2023/12/26 06:57:07;;;;;;;5.07;1.57;;;;;;;;;;5056166;28;20043;-77
2023/12/26 06:59:35;;;;;;;2.80;1.13;;;;;;;;;;5058241;28;20112;-78
2023/12/26 07:02:21;;;;;;;7.40;1.37;;;;;;;;;;5059834;28;20037;-77
2023/12/26 07:05:05;;;;;;;7.03;1.07;;;;;;;;;;5054556;28;20040;-77
2023/12/26 07:07:34;;;;;;;5.27;1.20;;;;;;;;;;5071065;28;20108;-77
2023/12/26 07:10:00;;;;;;;9.93;1.47;;;;;;;;;;5069799;28;20089;-77
2023/12/26 07:12:26;;;;;;;4.60;1.30;;;;;;;;;;5052827;28;20040;-76
2023/12/26 07:14:54;;;;;;;6.83;1.93;;;;;;;;;;5119326;23;20030;-76
2023/12/26 07:17:34;;;;;;;;;;;;;;;;;;;;;
2023/12/26 07:20:00;;;;;;;2.73;1.03;;;;;;;;;;5034213;28;20061;-77
2023/12/26 07:22:31;;;;;;;7.70;1.50;;;;;;;;;;5039740;28;20042;-76
2023/12/26 07:25:02;;;;;;;5.07;1.47;;;;;;;;;;5051486;28;20029;-76
2023/12/26 07:27:38;;;;;;;5.60;1.60;;;;;;;;;;5036656;28;20018;-77
2023/12/26 07:30:18;;;;;;;5.10;1.43;;;;;;;;;;5034427;28;20041;-76
2023/12/26 07:32:47;;;;;;;7.00;1.77;;;;;;;;;;5035212;28;20040;-76
2023/12/26 07:35:33;;;;;;;;;;;;;;;;;;;;;
2023/12/26 07:38:00;;;;;;;3.47;1.13;;;;;;;;;;5036082;28;20179;-76
2023/12/26 07:40:33;;;;;;;4.40;1.30;;;;;;;;;;5035096;28;20014;-77
2023/12/26 07:43:02;;;;;;;7.57;1.20;;;;;;;;;;5036924;28;20034;-77
2023/12/26 07:45:38;;;;;;;3.33;0.90;;;;;;;;;;5035255;28;20013;-76
2023/12/26 07:48:07;;;;;;;7.67;1.63;;;;;;;;;;5042098;28;20019;-76
2023/12/26 07:50:49;;;;;;;3.60;1.13;;;;;;;;;;5037725;28;20037;-78
2023/12/26 07:53:15;;;;;;;6.93;1.30;;;;;;;;;;5052690;28;20066;-77
2023/12/26 07:55:56;;;;;;;5.67;1.50;;;;;;;;;;5028726;28;20034;-77
2023/12/26 07:58:25;;;;;;;4.43;1.63;;;;;;;;;;5045953;28;20034;-77
2023/12/26 08:01:02;;;;;;;4.70;1.37;;;;;;;;;;5031289;28;20040;-77
2023/12/26 08:03:50;;;;;;;6.80;1.60;;;;;;;;;;5032256;28;20068;-77
2023/12/26 08:06:42;;;;;;;4.53;1.27;;;;;;;;;;5046315;28;20094;-76
2023/12/26 08:09:17;;;;;;;3.43;1.10;;;;;;;;;;5038976;28;20085;-77
2023/12/26 08:11:59;;;;;;;7.07;1.57;;;;;;;;;;5038370;28;20042;-76
2023/12/26 08:14:44;;;;;;;6.18;1.73;;;;;;;;;;5110920;22;20047;-76
2023/12/26 08:17:10;;;;;;;9.23;1.47;;;;;;;;;;5079790;28;20027;-77
2023/12/26 08:19:43;;;;;;;4.93;1.10;;;;;;;;;;5078082;28;20004;-77
2023/12/26 08:22:22;;;;;;;6.03;1.80;;;;;;;;;;5079806;28;20071;-77
2023/12/26 08:25:11;;;;;;;5.87;1.13;;;;;;;;;;5083945;22;20057;-76
2023/12/26 08:27:46;;;;;;;8.17;1.20;;;;;;;;;;5058518;28;20029;-77
2023/12/26 08:30:19;;;;;;;3.83;0.93;;;;;;;;;;5072524;28;20009;-77
2023/12/26 08:32:54;;;;;;;7.23;1.73;;;;;;;;;;5059000;28;20079;-77
2023/12/26 08:38:18;;;;;;;10.27;1.53;;;;;;;;;;5057406;28;20043;-76
2023/12/26 08:40:54;;;;;;;8.97;1.70;;;;;;;;;;5056188;28;20157;-77
2023/12/26 08:43:30;;;;;;;7.63;1.23;;;;;;;;;;5049879;28;20036;-76
2023/12/26 08:46:11;;;;;;;9.40;1.50;;;;;;;;;;5095741;23;20048;-77
2023/12/26 08:48:44;;;;;;;6.30;1.80;;;;;;;;;;5065388;28;20061;-77
2023/12/26 08:51:25;;;;;;;9.40;1.77;;;;;;;;;;5065852;28;20030;-77
2023/12/26 08:54:00;;;;;;;10.47;1.53;;;;;;;;;;5147854;22;20814;-78
2023/12/26 08:56:33;;;;;;;9.40;1.73;;;;;;;;;;5077198;23;20035;-77
2023/12/26 08:59:07;;;;;;;11.47;1.70;;;;;;;;;;5004488;28;20102;-79
2023/12/26 09:01:35;;;;;;;8.80;2.10;;;;;;;;;;5004313;28;20035;-78
2023/12/26 09:04:05;;;;;;;9.00;2.27;;;;;;;;;;5152355;23;20041;-78
2023/12/26 09:06:31;;;;;;;7.67;1.50;;;;;;;;;;5073103;28;20017;-77
2023/12/26 09:09:17;;;;;;;7.77;1.87;;;;;;;;;;5057953;28;20047;-77
2023/12/26 09:11:56;;;;;;;;;;;;;;;;;;;;;
2023/12/26 09:14:46;;;;;;;6.80;1.43;;;;;;;;;;5055820;28;20041;-77
2023/12/26 09:17:11;;;;;;;9.03;1.60;;;;;;;;;;5053952;28;20258;-78
2023/12/26 09:19:41;;;;;;;7.00;1.50;;;;;;;;;;5056492;28;20013;-78
2023/12/26 09:22:26;;;;;;;7.67;1.57;;;;;;;;;;5057515;28;20025;-78
2023/12/26 09:25:04;;;;;;;6.20;1.30;;;;;;;;;;5116761;23;20062;-78
2023/12/26 09:27:30;;;;;;;6.53;1.60;;;;;;;;;;5023230;28;20035;-78
2023/12/26 09:30:31;;;;;;;7.13;1.37;;;;;;;;;;5008921;28;20019;-78
2023/12/26 09:33:17;;;;;;;6.10;1.20;;;;;;;;;;5075584;22;20061;-78
2023/12/26 09:35:48;;;;;;;6.70;1.50;;;;;;;;;;5032044;28;20030;-76
2023/12/26 09:38:38;;;;;;;5.87;1.23;;;;;;;;;;5026564;28;20041;-77
2023/12/26 09:41:12;;;;;;;8.47;1.80;;;;;;;;;;5030350;28;20030;-78
2023/12/26 09:46:09;;;;;;;6.40;1.83;;;;;;;;;;5035117;28;20045;-77
2023/12/26 09:48:37;;;;;;;8.10;1.93;;;;;;;;;;5045723;28;20027;-77
2023/12/26 09:51:23;;;;;;;14.37;1.90;;;;;;;;;;5034494;28;20014;-76
2023/12/26 09:54:05;;;;;;;13.33;3.17;;;;;;;;;;5037895;28;20010;-76
2023/12/26 09:56:45;;;;;;;12.80;2.20;;;;;;;;;;5064274;23;20067;-77
2023/12/26 09:59:26;;;;;;;9.73;2.53;;;;;;;;;;5065439;28;20045;-76
2023/12/26 10:01:54;;;;;;;3.90;1.67;;;;;;;;;;5053391;28;20051;-76
2023/12/26 10:04:34;;;;;;;9.80;2.37;;;;;;;;;;5071242;28;20020;-77
2023/12/26 10:07:17;;;;;;;15.67;2.83;;;;;;;;;;5085939;22;20034;-77
2023/12/26 10:09:55;;;;;;;13.20;2.73;;;;;;;;;;5045647;28;20033;-77
2023/12/26 10:12:39;;;;;;;13.40;2.20;;;;;;;;;;5277279;23;20044;-77
2023/12/26 10:15:24;;;;;;;7.67;2.03;;;;;;;;;;5117198;22;20076;-76
2023/12/26 10:18:33;;;;;;;;;;;;;;;;;;;;;
2023/12/26 10:21:03;;;;;;;10.37;1.97;;;;;;;;;;5040797;28;20034;-77
2023/12/26 10:23:48;;;;;;;;;;;;;;;;;;;;;
2023/12/26 10:26:40;;;;;;;10.10;1.60;;;;;;;;;;5201819;23;20049;-77
2023/12/26 10:29:37;;;;;;;7.10;2.27;;;;;;;;;;5085837;28;20020;-77
2023/12/26 10:54:17;;;;;;;5.20;1.47;;;;;;;;;;5057674;28;20026;-77
2023/12/26 10:56:46;;;;;;;8.87;1.43;;;;;;;;;;5059990;28;20085;-78
2023/12/26 13:52:54;;;;;;;11.93;2.10;;;;;;;;;;5085359;28;20131;-77
2023/12/26 13:55:33;;;;;;;;;;;;;;;;;;;;;
2023/12/26 13:57:59;;;;;;;8.37;1.33;;;;;;;;;;5084178;28;20051;-77
2023/12/26 14:00:39;;;;;;;6.83;1.40;;;;;;;;;;5084673;28;20025;-77
2023/12/26 14:03:14;;;;;;;13.73;2.07;;;;;;;;;;5080989;28;20029;-77
2023/12/26 14:05:43;;;;;;;11.87;2.00;;;;;;;;;;5094467;28;20024;-77
2023/12/26 14:08:19;;;;;;;;;;;;;;;;;;;;;
2023/12/26 14:10:49;;;;;;;13.63;1.90;;;;;;;;;;5086331;28;20042;-77
2023/12/26 14:13:20;;;;;;;7.30;1.73;;;;;;;;;;5094766;28;20013;-78
2023/12/26 14:15:49;;;;;;;9.40;2.00;;;;;;;;;;5091939;28;20048;-77
2023/12/26 14:18:22;;;;;;;5.20;1.00;;;;;;;;;;5082806;28;20047;-77
2023/12/26 14:20:48;;;;;;;10.40;1.80;;;;;;;;;;5093220;28;20013;-77
2023/12/26 14:23:19;;;;;;;11.63;1.97;;;;;;;;;;5086223;28;20017;-77
2023/12/26 14:25:48;;;;;;;11.33;2.40;;;;;;;;;;5096935;28;20009;-77
2023/12/26 14:28:15;;;;;;;13.27;2.10;;;;;;;;;;5093579;28;20100;-77
2023/12/26 14:30:41;;;;;;;10.33;1.67;;;;;;;;;;5094304;28;20046;-77
2023/12/26 14:33:10;;;;;;;13.83;2.50;;;;;;;;;;5077438;28;20037;-77
2023/12/26 14:35:38;;;;;;;9.53;1.87;;;;;;;;;;5095574;28;20088;-78
2023/12/26 14:38:07;;;;;;;12.63;2.07;;;;;;;;;;5093739;28;20029;-77
2023/12/26 14:40:45;;;;;;;15.83;2.70;;;;;;;;;;5094989;28;20021;-77
2023/12/26 14:43:21;;;;;;;;;;;;;;;;;;;;;
2023/12/26 14:46:08;;;;;;;11.63;2.87;;;;;;;;;;5071900;28;20041;-77
2023/12/26 14:48:43;;;;;;;12.50;1.90;;;;;;;;;;5071485;28;20025;-77
2023/12/26 14:54:26;;;;;;;13.70;2.63;;;;;;;;;;5071811;28;20132;-78
2023/12/26 14:56:52;;;;;;;7.97;1.93;;;;;;;;;;5083715;28;20033;-77
2023/12/26 14:59:20;;;;;;;9.77;1.67;;;;;;;;;;5087279;28;20025;-77
2023/12/26 15:04:59;;;;;;;14.43;1.80;;;;;;;;;;5070462;28;20021;-77
2023/12/26 15:07:28;;;;;;;11.03;1.93;;;;;;;;;;5071369;28;20048;-80
2023/12/26 15:09:56;;;;;;;13.83;1.97;;;;;;;;;;5072879;28;20036;-77
2023/12/26 15:12:35;;;;;;;;;;;;;;;;;;;;;
2023/12/26 15:15:04;;;;;;;12.03;1.83;;;;;;;;;;5068481;28;20055;-77
2023/12/26 15:17:30;;;;;;;9.13;2.10;;;;;;;;;;5086183;28;20079;-77
2023/12/26 15:20:00;;;;;;;10.37;3.27;;;;;;;;;;5072932;28;20013;-77
2023/12/26 15:25:18;;;;;;;16.60;2.27;;;;;;;;;;5068154;28;20040;-78
2023/12/26 15:28:02;;;;;;;;;;;;;;;;;;;;;
2023/12/26 15:30:41;;;;;;;11.07;2.07;;;;;;;;;;5069494;28;20045;-77
2023/12/26 15:33:09;;;;;;;9.40;1.80;;;;;;;;;;5085412;28;20025;-77
2023/12/26 15:35:35;;;;;;;10.83;2.10;;;;;;;;;;5085779;28;20057;-78
2023/12/26 15:38:09;;;;;;;12.77;1.83;;;;;;;;;;5067957;28;20029;-77
2023/12/26 15:40:37;;;;;;;10.00;1.37;;;;;;;;;;5070332;28;20040;-77
2023/12/26 15:43:05;;;;;;;13.97;2.13;;;;;;;;;;5070950;28;20049;-77
2023/12/26 15:45:39;;;;;;;12.90;1.80;;;;;;;;;;5084377;28;20023;-77
2023/12/26 15:48:05;;;;;;;7.83;1.40;;;;;;;;;;5070512;28;20033;-77
2023/12/26 15:50:33;;;;;;;12.43;2.50;;;;;;;;;;5083439;28;20030;-77
2023/12/26 15:52:59;;;;;;;13.10;2.63;;;;;;;;;;5085430;28;20040;-77
2023/12/26 15:55:26;;;;;;;7.07;1.87;;;;;;;;;;5067333;28;20056;-77
2023/12/26 15:57:52;;;;;;;15.03;2.77;;;;;;;;;;5072711;28;20044;-77
2023/12/26 16:00:20;;;;;;;9.40;1.87;;;;;;;;;;5072426;28;20009;-77
2023/12/26 16:02:49;;;;;;;12.20;2.53;;;;;;;;;;5083581;28;20093;-78
2023/12/26 16:05:26;;;;;;;11.67;2.33;;;;;;;;;;5091366;22;20063;-77
2023/12/26 16:07:58;;;;;;;10.37;2.60;;;;;;;;;;5062200;28;20044;-77
2023/12/26 16:10:26;;;;;;;11.70;2.20;;;;;;;;;;5072583;28;20013;-77
2023/12/26 16:13:03;;;;;;;11.63;2.13;;;;;;;;;;5058037;28;20085;-78
2023/12/26 16:15:32;;;;;;;15.57;2.73;;;;;;;;;;5070106;28;20079;-77
2023/12/26 16:18:00;;;;;;;11.90;2.23;;;;;;;;;;5072475;28;20046;-77
2023/12/26 16:20:29;;;;;;;15.40;2.70;;;;;;;;;;5106595;22;20036;-77
2023/12/26 16:23:05;;;;;;;15.70;2.80;;;;;;;;;;5111382;28;20024;-77
2023/12/26 16:25:32;;;;;;;17.80;2.90;;;;;;;;;;5110581;28;20020;-77
2023/12/26 16:28:02;;;;;;;14.57;3.07;;;;;;;;;;5111156;28;20092;-77
2023/12/26 16:30:29;;;;;;;8.50;2.00;;;;;;;;;;5110973;28;20043;-77
2023/12/26 16:38:07;;;;;;;12.03;1.80;;;;;;;;;;5090469;28;20104;-77
2023/12/26 16:40:42;;;;;;;14.03;2.30;;;;;;;;;;5092198;28;20060;-77
2023/12/26 16:43:08;;;;;;;16.07;2.10;;;;;;;;;;5095891;28;20012;-77
2023/12/26 16:45:34;;;;;;;17.37;2.90;;;;;;;;;;5082787;28;20020;-78
2023/12/26 16:48:03;;;;;;;11.57;2.40;;;;;;;;;;5082795;28;20003;-77
2023/12/26 16:50:29;;;;;;;8.03;1.60;;;;;;;;;;5078804;28;20073;-78
2023/12/26 16:52:55;;;;;;;14.87;2.53;;;;;;;;;;5084441;28;20042;-77
2023/12/26 16:55:45;;;;;;;17.07;3.60;;;;;;;;;;5078873;28;20020;-77
2023/12/26 16:58:20;;;;;;;20.00;2.87;;;;;;;;;;5081351;28;20020;-77
2023/12/26 17:00:51;;;;;;;13.23;1.87;;;;;;;;;;5098217;28;20076;-78
2023/12/26 17:03:22;;;;;;;17.00;2.83;;;;;;;;;;5080031;28;20016;-77
2023/12/26 17:06:06;;;;;;;13.20;2.33;;;;;;;;;;5080565;28;20063;-77
2023/12/26 17:08:52;;;;;;;14.07;2.93;;;;;;;;;;5073622;28;20013;-77
2023/12/26 17:11:26;;;;;;;11.03;2.23;;;;;;;;;;5081279;28;20019;-77
2023/12/26 17:13:54;;;;;;;11.83;2.63;;;;;;;;;;5094845;28;20025;-77
2023/12/26 17:16:40;;;;;;;16.57;2.97;;;;;;;;;;5080680;28;20012;-77
2023/12/26 17:19:13;;;;;;;18.17;3.07;;;;;;;;;;5080009;28;20108;-78
2023/12/26 17:21:50;;;;;;;;;;;;;;;;;;;;;
2023/12/26 17:24:22;;;;;;;23.10;2.57;;;;;;;;;;5098572;28;20013;-77
2023/12/26 17:30:28;;;;;;;16.33;2.63;;;;;;;;;;4984866;28;20055;-77
2023/12/26 17:32:54;;;;;;;14.57;3.23;;;;;;;;;;5084833;28;20027;-77
2023/12/26 17:35:20;;;;;;;8.07;1.90;;;;;;;;;;5082679;28;20012;-77
2023/12/26 17:37:48;;;;;;;12.70;2.20;;;;;;;;;;5101004;28;20055;-77
2023/12/26 17:40:17;;;;;;;12.60;2.53;;;;;;;;;;5084279;28;20012;-77
2023/12/26 17:42:43;;;;;;;16.03;2.73;;;;;;;;;;5084828;28;20027;-77
2023/12/26 17:45:10;;;;;;;11.83;2.83;;;;;;;;;;5080992;28;20020;-77
2023/12/26 17:47:38;;;;;;;14.20;2.30;;;;;;;;;;5085124;28;20071;-77
2023/12/26 17:50:09;;;;;;;11.97;2.87;;;;;;;;;;5080724;28;20001;-77
2023/12/26 17:52:35;;;;;;;18.37;3.03;;;;;;;;;;5099565;28;20027;-77
2023/12/26 17:55:11;;;;;;;12.07;2.47;;;;;;;;;;5085804;28;20023;-78
2023/12/26 17:57:57;;;;;;;18.07;3.40;;;;;;;;;;5086935;28;20031;-77
2023/12/26 18:00:23;;;;;;;14.33;3.30;;;;;;;;;;5097788;28;20009;-77
2023/12/26 18:02:49;;;;;;;13.57;2.70;;;;;;;;;;5083337;28;20099;-77
2023/12/26 18:05:24;;;;;;;10.83;2.50;;;;;;;;;;5080733;28;20008;-77
2023/12/26 18:08:00;;;;;;;16.20;3.60;;;;;;;;;;5084543;28;20012;-78
2023/12/26 18:10:28;;;;;;;21.33;3.80;;;;;;;;;;5077697;28;20031;-77
2023/12/26 18:12:56;;;;;;;14.00;3.27;;;;;;;;;;5084282;28;20061;-78
2023/12/26 18:15:24;;;;;;;17.20;3.80;;;;;;;;;;5078721;28;20032;-77
2023/12/26 18:17:56;;;;;;;17.00;3.50;;;;;;;;;;5098661;28;20060;-77
2023/12/26 18:20:40;;;;;;;11.35;2.25;;;;;;;;;;5088254;28;20031;-77
2023/12/26 18:23:15;;;;;;;12.23;2.73;;;;;;;;;;5074693;28;20066;-77
2023/12/26 18:25:44;;;;;;;14.80;3.03;;;;;;;;;;5087542;28;20095;-78
2023/12/26 18:28:10;;;;;;;15.63;3.67;;;;;;;;;;5087213;28;20108;-77
2023/12/26 18:30:36;;;;;;;16.27;3.47;;;;;;;;;;5079302;28;20067;-77
2023/12/26 18:33:10;;;;;;;12.20;3.07;;;;;;;;;;5091823;28;20148;-78
2023/12/26 18:35:39;;;;;;;16.93;3.13;;;;;;;;;;5089271;28;20068;-77
2023/12/26 18:38:10;;;;;;;22.97;4.40;;;;;;;;;;5068778;28;20037;-77
2023/12/26 18:40:44;;;;;;;16.10;2.40;;;;;;;;;;5092421;28;20025;-77
2023/12/26 18:43:25;;;;;;;14.23;2.77;;;;;;;;;;5093825;28;20016;-77
2023/12/26 18:46:11;;;;;;;12.47;3.07;;;;;;;;;;5094109;28;20021;-77
2023/12/26 18:48:37;;;;;;;13.30;2.67;;;;;;;;;;5091550;28;20013;-77
2023/12/26 18:51:14;;;;;;;18.27;3.10;;;;;;;;;;5067758;28;20013;-77
2023/12/26 18:53:43;;;;;;;11.33;2.77;;;;;;;;;;5092757;28;20056;-77
2023/12/26 18:56:16;;;;;;;9.80;2.83;;;;;;;;;;5069060;28;20024;-77
2023/12/26 18:58:42;;;;;;;12.68;2.53;;;;;;;;;;5090772;28;20028;-77
2023/12/26 19:01:10;;;;;;;15.07;2.57;;;;;;;;;;5076535;28;20042;-77
2023/12/26 19:03:51;;;;;;;;;;;;;;;;;;;;;
2023/12/26 19:06:27;;;;;;;14.13;2.90;;;;;;;;;;5101525;28;20039;-77
2023/12/26 19:09:03;;;;;;;9.03;2.77;;;;;;;;;;5078480;28;20044;-77
2023/12/26 19:11:31;;;;;;;15.63;3.20;;;;;;;;;;5098837;28;20028;-77
2023/12/26 19:13:59;;;;;;;13.73;2.57;;;;;;;;;;5080321;28;20027;-77
2023/12/26 19:16:35;;;;;;;15.30;3.43;;;;;;;;;;5084249;28;20029;-77
2023/12/26 19:19:13;;;;;;;22.80;3.67;;;;;;;;;;5080555;28;20040;-77
2023/12/26 19:21:46;;;;;;;12.50;2.60;;;;;;;;;;5074896;28;20020;-77
2023/12/26 19:24:13;;;;;;;14.87;3.33;;;;;;;;;;5095043;28;20021;-77
2023/12/26 19:27:06;;;;;;;21.70;3.00;;;;;;;;;;5080558;28;20025;-77